ICE50 BIRK-BIAR
Flight info
| Callsign | ICE50 |
|---|---|
| Flight time | 0h 36m |
| Altitude | 17000 |
| Route | GILTU |
| Aircraft | DH8D/M-SDE2E3FGRY/H |
Departure
| Time | 2026-04-23 23:29 |
|---|---|
| Airport | Reykjavík Domestic Airport (BIRK) |
Arrival
| Time | 2026-04-24 00:06 |
|---|---|
| Airport | Akureyri International Airport (BIAR) |
| Time | Latitude | Longitude | Altitude | Speed | Heading |
|---|---|---|---|---|---|
| 2026-04-23 23:05 | 64.13165 | -21.94574 | 39 ft | 0 kts | 84° |
| 2026-04-23 23:25 | 64.13164 | -21.94554 | 39 ft | 5 kts | 107° |
| 2026-04-23 23:25 | 64.13135 | -21.94410 | 40 ft | 12 kts | 104° |
| 2026-04-23 23:25 | 64.13139 | -21.94189 | 42 ft | 14 kts | 83° |
| 2026-04-23 23:26 | 64.13150 | -21.93972 | 43 ft | 13 kts | 83° |
| 2026-04-23 23:26 | 64.13133 | -21.93743 | 43 ft | 14 kts | 102° |
| 2026-04-23 23:26 | 64.13185 | -21.93576 | 44 ft | 13 kts | 21° |
| 2026-04-23 23:26 | 64.13296 | -21.93583 | 40 ft | 19 kts | 355° |
| 2026-04-23 23:27 | 64.13429 | -21.93608 | 34 ft | 19 kts | 355° |
| 2026-04-23 23:27 | 64.13553 | -21.93643 | 30 ft | 15 kts | 338° |
| 2026-04-23 23:27 | 64.13572 | -21.93669 | 30 ft | 0 kts | 322° |
| 2026-04-23 23:27 | 64.13575 | -21.93674 | 30 ft | 5 kts | 321° |
| 2026-04-23 23:28 | 64.13615 | -21.93773 | 30 ft | 10 kts | 310° |
| 2026-04-23 23:28 | 64.13600 | -21.93892 | 31 ft | 10 kts | 174° |
| 2026-04-23 23:28 | 64.13591 | -21.93890 | 32 ft | 0 kts | 174° |
| 2026-04-23 23:29 | 64.13278 | -21.93825 | 42 ft | 91 kts | 175° |
| 2026-04-23 23:29 | 64.12459 | -21.93668 | 194 ft | 134 kts | 178° |
| 2026-04-23 23:29 | 64.11487 | -21.93530 | 725 ft | 148 kts | 175° |
| 2026-04-23 23:30 | 64.10551 | -21.92544 | 1367 ft | 159 kts | 134° |
| 2026-04-23 23:30 | 64.10299 | -21.90157 | 1919 ft | 173 kts | 77° |
| 2026-04-23 23:30 | 64.11066 | -21.88057 | 2419 ft | 184 kts | 23° |
| 2026-04-23 23:30 | 64.12289 | -21.87117 | 3103 ft | 186 kts | 19° |
| 2026-04-23 23:31 | 64.13467 | -21.85864 | 3667 ft | 191 kts | 29° |
| 2026-04-23 23:31 | 64.14581 | -21.84235 | 4301 ft | 193 kts | 34° |
| 2026-04-23 23:31 | 64.15631 | -21.82413 | 4947 ft | 193 kts | 38° |
| 2026-04-23 23:31 | 64.16663 | -21.80388 | 5492 ft | 198 kts | 43° |
| 2026-04-23 23:32 | 64.17650 | -21.78228 | 6107 ft | 198 kts | 44° |
| 2026-04-23 23:32 | 64.18618 | -21.75977 | 6683 ft | 201 kts | 46° |
| 2026-04-23 23:32 | 64.19565 | -21.73639 | 7277 ft | 203 kts | 47° |
| 2026-04-23 23:32 | 64.20511 | -21.71219 | 7882 ft | 206 kts | 47° |
| 2026-04-23 23:33 | 64.21457 | -21.68727 | 8481 ft | 209 kts | 48° |
| 2026-04-23 23:33 | 64.22398 | -21.66194 | 9079 ft | 212 kts | 49° |
| 2026-04-23 23:33 | 64.23354 | -21.63577 | 9687 ft | 215 kts | 49° |
| 2026-04-23 23:33 | 64.24306 | -21.60938 | 10302 ft | 217 kts | 49° |
| 2026-04-23 23:34 | 64.25281 | -21.58213 | 10739 ft | 231 kts | 49° |
| 2026-04-23 23:34 | 64.26335 | -21.55263 | 11027 ft | 247 kts | 49° |
| 2026-04-23 23:34 | 64.27435 | -21.52158 | 11543 ft | 253 kts | 49° |
| 2026-04-23 23:34 | 64.28548 | -21.48997 | 12151 ft | 256 kts | 49° |
| 2026-04-23 23:35 | 64.29658 | -21.45824 | 12790 ft | 258 kts | 49° |
| 2026-04-23 23:35 | 64.30776 | -21.42625 | 13423 ft | 259 kts | 49° |
| 2026-04-23 23:35 | 64.31898 | -21.39408 | 14046 ft | 260 kts | 49° |
| 2026-04-23 23:35 | 64.33028 | -21.36162 | 14658 ft | 260 kts | 49° |
| 2026-04-23 23:36 | 64.34167 | -21.32880 | 15246 ft | 261 kts | 50° |
| 2026-04-23 23:36 | 64.35289 | -21.29647 | 15812 ft | 262 kts | 50° |
| 2026-04-23 23:36 | 64.36432 | -21.26341 | 16377 ft | 263 kts | 50° |
| 2026-04-23 23:36 | 64.37573 | -21.23040 | 16915 ft | 264 kts | 49° |
| 2026-04-23 23:37 | 64.38715 | -21.19729 | 17276 ft | 272 kts | 49° |
| 2026-04-23 23:37 | 64.39932 | -21.16207 | 17402 ft | 289 kts | 49° |
| 2026-04-23 23:37 | 64.41230 | -21.12444 | 17416 ft | 306 kts | 50° |
| 2026-04-23 23:37 | 64.42574 | -21.08536 | 17408 ft | 319 kts | 50° |
| 2026-04-23 23:38 | 64.43971 | -21.04459 | 17397 ft | 328 kts | 50° |
| 2026-04-23 23:38 | 64.45403 | -21.00273 | 17389 ft | 333 kts | 50° |
| 2026-04-23 23:38 | 64.46846 | -20.96034 | 17364 ft | 336 kts | 50° |
| 2026-04-23 23:38 | 64.48276 | -20.91828 | 17351 ft | 337 kts | 50° |
| 2026-04-23 23:39 | 64.49734 | -20.87529 | 17346 ft | 338 kts | 50° |
| 2026-04-23 23:39 | 64.51200 | -20.83199 | 17343 ft | 338 kts | 50° |
| 2026-04-23 23:39 | 64.52647 | -20.78921 | 17343 ft | 339 kts | 50° |
| 2026-04-23 23:39 | 64.54093 | -20.74632 | 17344 ft | 339 kts | 50° |
| 2026-04-23 23:40 | 64.55546 | -20.70321 | 17350 ft | 340 kts | 50° |
| 2026-04-23 23:40 | 64.56996 | -20.66005 | 17352 ft | 341 kts | 50° |
| 2026-04-23 23:40 | 64.58459 | -20.61648 | 17350 ft | 342 kts | 50° |
| 2026-04-23 23:40 | 64.59920 | -20.57282 | 17344 ft | 343 kts | 50° |
| 2026-04-23 23:41 | 64.61390 | -20.52887 | 17332 ft | 345 kts | 50° |
| 2026-04-23 23:41 | 64.62868 | -20.48455 | 17293 ft | 347 kts | 50° |
| 2026-04-23 23:41 | 64.64342 | -20.44025 | 17252 ft | 347 kts | 50° |
| 2026-04-23 23:41 | 64.65811 | -20.39593 | 17229 ft | 346 kts | 50° |
| 2026-04-23 23:42 | 64.67293 | -20.35116 | 17215 ft | 345 kts | 50° |
| 2026-04-23 23:42 | 64.68765 | -20.30661 | 17205 ft | 345 kts | 51° |
| 2026-04-23 23:42 | 64.70220 | -20.26249 | 17203 ft | 344 kts | 51° |
| 2026-04-23 23:42 | 64.71679 | -20.21820 | 17254 ft | 344 kts | 51° |
| 2026-04-23 23:43 | 64.73150 | -20.17349 | 17225 ft | 348 kts | 51° |
| 2026-04-23 23:43 | 64.74625 | -20.12857 | 17138 ft | 353 kts | 51° |
| 2026-04-23 23:43 | 64.76126 | -20.08279 | 16965 ft | 347 kts | 51° |
| 2026-04-23 23:43 | 64.77586 | -20.03812 | 16920 ft | 340 kts | 51° |
| 2026-04-23 23:44 | 64.78999 | -19.99481 | 16911 ft | 340 kts | 51° |
| 2026-04-23 23:44 | 64.80431 | -19.95084 | 16926 ft | 340 kts | 51° |
| 2026-04-23 23:44 | 64.81879 | -19.90626 | 16950 ft | 341 kts | 51° |
| 2026-04-23 23:44 | 64.83316 | -19.86199 | 16964 ft | 341 kts | 51° |
| 2026-04-23 23:45 | 64.84735 | -19.81817 | 16975 ft | 342 kts | 51° |
| 2026-04-23 23:45 | 64.86188 | -19.77320 | 16958 ft | 343 kts | 51° |
| 2026-04-23 23:45 | 64.87620 | -19.72879 | 16944 ft | 341 kts | 51° |
| 2026-04-23 23:45 | 64.89037 | -19.68474 | 16997 ft | 336 kts | 51° |
| 2026-04-23 23:46 | 64.90424 | -19.64153 | 17063 ft | 333 kts | 51° |
| 2026-04-23 23:46 | 64.91812 | -19.59823 | 17120 ft | 332 kts | 51° |
| 2026-04-23 23:46 | 64.93198 | -19.55491 | 17176 ft | 331 kts | 51° |
| 2026-04-23 23:46 | 64.94585 | -19.51153 | 17215 ft | 332 kts | 51° |
| 2026-04-23 23:47 | 64.95976 | -19.46792 | 17277 ft | 334 kts | 51° |
| 2026-04-23 23:47 | 64.97378 | -19.42386 | 17289 ft | 337 kts | 51° |
| 2026-04-23 23:47 | 64.98783 | -19.37963 | 17276 ft | 340 kts | 51° |
| 2026-04-23 23:47 | 65.00202 | -19.33486 | 17262 ft | 341 kts | 52° |
| 2026-04-23 23:48 | 65.01609 | -19.29035 | 17249 ft | 343 kts | 52° |
| 2026-04-23 23:48 | 65.03037 | -19.24509 | 17236 ft | 344 kts | 52° |
| 2026-04-23 23:48 | 65.04461 | -19.19987 | 17214 ft | 344 kts | 52° |
| 2026-04-23 23:48 | 65.05885 | -19.15454 | 17197 ft | 344 kts | 53° |
| 2026-04-23 23:49 | 65.08746 | -19.06325 | 17174 ft | 344 kts | 53° |
| 2026-04-23 23:49 | 65.10165 | -19.01780 | 17168 ft | 343 kts | 53° |
| 2026-04-23 23:49 | 65.11562 | -18.97298 | 17168 ft | 343 kts | 53° |
| 2026-04-23 23:50 | 65.12980 | -18.92741 | 17169 ft | 343 kts | 53° |
| 2026-04-23 23:50 | 65.14390 | -18.88202 | 17168 ft | 343 kts | 53° |
| 2026-04-23 23:50 | 65.15801 | -18.83648 | 17166 ft | 343 kts | 53° |
| 2026-04-23 23:50 | 65.17229 | -18.79033 | 17162 ft | 343 kts | 53° |
| 2026-04-23 23:51 | 65.18641 | -18.74457 | 17157 ft | 344 kts | 53° |
| 2026-04-23 23:51 | 65.20035 | -18.69931 | 17154 ft | 345 kts | 53° |
| 2026-04-23 23:51 | 65.21455 | -18.65311 | 17136 ft | 346 kts | 53° |
| 2026-04-23 23:51 | 65.22881 | -18.60661 | 17110 ft | 348 kts | 53° |
| 2026-04-23 23:52 | 65.24312 | -18.55986 | 17075 ft | 349 kts | 53° |
| 2026-04-23 23:52 | 65.25744 | -18.51297 | 17020 ft | 351 kts | 53° |
| 2026-04-23 23:52 | 65.27183 | -18.46578 | 16886 ft | 350 kts | 53° |
| 2026-04-23 23:52 | 65.28578 | -18.41989 | 16913 ft | 342 kts | 53° |
| 2026-04-23 23:53 | 65.30032 | -18.37507 | 16973 ft | 336 kts | 46° |
| 2026-04-23 23:53 | 65.31936 | -18.34538 | 17030 ft | 333 kts | 24° |
| 2026-04-23 23:53 | 65.34141 | -18.32670 | 16675 ft | 339 kts | 19° |
| 2026-04-23 23:53 | 65.36344 | -18.30993 | 16230 ft | 326 kts | 19° |
| 2026-04-23 23:54 | 65.38471 | -18.29395 | 15807 ft | 316 kts | 19° |
| 2026-04-23 23:54 | 65.40536 | -18.27838 | 15309 ft | 312 kts | 19° |
| 2026-04-23 23:54 | 65.42596 | -18.26279 | 14706 ft | 309 kts | 19° |
| 2026-04-23 23:54 | 65.44598 | -18.24755 | 14211 ft | 303 kts | 19° |
| 2026-04-23 23:55 | 65.46588 | -18.23235 | 13744 ft | 298 kts | 19° |
| 2026-04-23 23:55 | 65.48538 | -18.21740 | 13306 ft | 292 kts | 19° |
| 2026-04-23 23:55 | 65.50452 | -18.20268 | 12882 ft | 287 kts | 19° |
| 2026-04-23 23:55 | 65.52338 | -18.18817 | 12468 ft | 283 kts | 18° |
| 2026-04-23 23:56 | 65.54194 | -18.17383 | 12060 ft | 279 kts | 18° |
| 2026-04-23 23:56 | 65.56002 | -18.15985 | 11662 ft | 275 kts | 18° |
| 2026-04-23 23:56 | 65.57812 | -18.14582 | 11265 ft | 271 kts | 18° |
| 2026-04-23 23:56 | 65.59593 | -18.13199 | 10873 ft | 268 kts | 18° |
| 2026-04-23 23:57 | 65.61359 | -18.11826 | 10486 ft | 265 kts | 18° |
| 2026-04-23 23:57 | 65.63103 | -18.10468 | 10102 ft | 263 kts | 18° |
| 2026-04-23 23:57 | 65.64818 | -18.09130 | 9724 ft | 261 kts | 17° |
| 2026-04-23 23:57 | 65.66544 | -18.07781 | 9346 ft | 259 kts | 17° |
| 2026-04-23 23:58 | 65.68227 | -18.06465 | 8977 ft | 257 kts | 17° |
| 2026-04-23 23:58 | 65.69939 | -18.05123 | 8600 ft | 256 kts | 17° |
| 2026-04-23 23:58 | 65.71622 | -18.03802 | 8230 ft | 255 kts | 17° |
| 2026-04-23 23:58 | 65.73289 | -18.02492 | 7863 ft | 253 kts | 17° |
| 2026-04-23 23:59 | 65.74958 | -18.01179 | 7495 ft | 252 kts | 17° |
| 2026-04-23 23:59 | 65.76600 | -17.99760 | 7127 ft | 252 kts | 21° |
| 2026-04-23 23:59 | 65.78207 | -17.98091 | 6757 ft | 251 kts | 22° |
| 2026-04-23 23:59 | 65.79796 | -17.96408 | 6392 ft | 249 kts | 22° |
| 2026-04-24 00:00 | 65.81399 | -17.94825 | 6022 ft | 248 kts | 15° |
| 2026-04-24 00:00 | 65.83086 | -17.94670 | 5668 ft | 243 kts | 347° |
| 2026-04-24 00:00 | 65.84585 | -17.96392 | 5325 ft | 240 kts | 321° |
| 2026-04-24 00:00 | 65.85601 | -17.99484 | 4991 ft | 237 kts | 296° |
| 2026-04-24 00:01 | 65.85963 | -18.03368 | 4658 ft | 236 kts | 270° |
| 2026-04-24 00:01 | 65.85594 | -18.07236 | 4324 ft | 235 kts | 244° |
| 2026-04-24 00:01 | 65.84580 | -18.10309 | 3991 ft | 235 kts | 219° |
| 2026-04-24 00:01 | 65.83129 | -18.12001 | 3656 ft | 235 kts | 193° |
| 2026-04-24 00:02 | 65.81509 | -18.12063 | 3313 ft | 235 kts | 173° |
| 2026-04-24 00:02 | 65.79929 | -18.11525 | 2983 ft | 221 kts | 173° |
| 2026-04-24 00:02 | 65.78436 | -18.11042 | 2617 ft | 213 kts | 173° |
| 2026-04-24 00:02 | 65.77010 | -18.10564 | 2345 ft | 196 kts | 172° |
| 2026-04-24 00:03 | 65.75749 | -18.10087 | 2235 ft | 171 kts | 170° |
| 2026-04-24 00:03 | 65.74643 | -18.09473 | 2030 ft | 157 kts | 167° |
| 2026-04-24 00:03 | 65.73624 | -18.08966 | 1710 ft | 147 kts | 170° |
| 2026-04-24 00:03 | 65.72632 | -18.08559 | 1301 ft | 142 kts | 173° |
| 2026-04-24 00:04 | 65.71695 | -18.08294 | 1025 ft | 133 kts | 176° |
| 2026-04-24 00:04 | 65.70778 | -18.08122 | 833 ft | 134 kts | 176° |
| 2026-04-24 00:04 | 65.69862 | -18.07973 | 673 ft | 131 kts | 176° |
| 2026-04-24 00:04 | 65.68948 | -18.07791 | 488 ft | 133 kts | 175° |
| 2026-04-24 00:05 | 65.68024 | -18.07632 | 323 ft | 131 kts | 175° |
| 2026-04-24 00:05 | 65.67110 | -18.07464 | 101 ft | 131 kts | 177° |
| 2026-04-24 00:05 | 65.66210 | -18.07303 | -36 ft | 111 kts | 175° |
| 2026-04-24 00:05 | 65.65624 | -18.07188 | -36 ft | 53 kts | 175° |
| 2026-04-24 00:06 | 65.65477 | -18.07317 | -36 ft | 18 kts | 264° |
| 2026-04-24 00:06 | 65.65477 | -18.07485 | -36 ft | 4 kts | 311° |
| 2026-04-24 00:06 | 65.65484 | -18.07493 | -36 ft | 0 kts | 359° |